createdAt,value
2023-01-25T00:02:10.734Z,5.30
2023-01-25T00:07:15.828Z,5.22
2023-01-25T00:12:19.585Z,5.07
2023-01-25T00:17:23.470Z,5.18
2023-01-25T00:22:28.517Z,5.10
2023-01-25T00:27:32.061Z,5.20
2023-01-25T00:33:07.528Z,4.85
2023-01-25T00:38:31.330Z,5.10
2023-01-25T00:43:34.946Z,4.95
2023-01-25T00:48:38.587Z,5.38
2023-01-25T00:53:44.024Z,5.35
2023-01-25T00:58:47.931Z,5.65
2023-01-25T01:03:54.421Z,5.40
2023-01-25T01:08:59.387Z,4.90
2023-01-25T01:14:03.001Z,4.80
2023-01-25T01:19:08.449Z,4.75
2023-01-25T01:24:13.577Z,4.70
2023-01-25T01:29:17.328Z,4.90
2023-01-25T01:34:21.876Z,4.88
2023-01-25T01:39:27.360Z,4.57
2023-01-25T01:44:49.731Z,4.50
2023-01-25T01:50:03.064Z,4.30
2023-01-25T01:55:18.183Z,4.60
2023-01-25T02:00:26.168Z,4.30
2023-01-25T02:05:52.553Z,4.70
2023-01-25T02:10:57.993Z,4.63
2023-01-25T02:16:02.144Z,4.35
2023-01-25T02:21:06.407Z,4.70
2023-01-25T02:26:11.816Z,4.82
2023-01-25T02:31:15.689Z,4.40
2023-01-25T02:36:25.942Z,4.60
2023-01-25T02:41:36.531Z,4.57
2023-01-25T02:46:42.273Z,4.45
2023-01-25T02:51:55.934Z,4.60
2023-01-25T02:57:01.307Z,4.63
2023-01-25T03:02:12.707Z,4.40
2023-01-25T03:07:17.556Z,4.55
2023-01-25T03:12:23.062Z,4.05
2023-01-25T03:17:26.877Z,4.38
2023-01-25T03:22:30.739Z,3.92
2023-01-25T03:27:36.429Z,4.35
2023-01-25T03:32:44.659Z,4.20
2023-01-25T03:37:54.395Z,4.30
2023-01-25T03:42:59.439Z,4.63
2023-01-25T03:48:03.287Z,4.22
2023-01-25T03:53:30.322Z,3.92
2023-01-25T03:58:44.027Z,4.00
2023-01-25T04:03:47.859Z,4.25
2023-01-25T04:08:51.855Z,4.15
2023-01-25T04:13:58.347Z,4.40
2023-01-25T04:19:07.029Z,4.32
2023-01-25T04:24:11.234Z,4.40
2023-01-25T04:29:23.676Z,4.18
2023-01-25T04:34:31.780Z,4.20
2023-01-25T04:39:35.626Z,4.20
2023-01-25T04:44:40.838Z,4.20
2023-01-25T04:49:45.181Z,4.30
2023-01-25T04:54:51.015Z,4.30
2023-01-25T04:59:56.143Z,4.10
2023-01-25T05:05:00.759Z,4.30
2023-01-25T05:10:06.057Z,4.18
2023-01-25T05:15:12.948Z,4.18
2023-01-25T05:20:17.483Z,4.35
2023-01-25T05:25:38.917Z,4.40
2023-01-25T05:30:47.860Z,4.60
2023-01-25T05:36:01.817Z,4.40
2023-01-25T05:41:11.811Z,4.25
2023-01-25T05:46:17.532Z,4.70
2023-01-25T05:51:22.947Z,4.22
2023-01-25T05:56:26.870Z,4.50
2023-01-25T06:01:32.976Z,4.18
2023-01-25T06:06:36.946Z,4.75
2023-01-25T06:11:40.785Z,4.30
2023-01-25T06:16:46.103Z,4.20
2023-01-25T06:22:09.403Z,4.50
2023-01-25T06:27:13.324Z,4.40
2023-01-25T06:32:18.782Z,4.45
2023-01-25T06:37:23.031Z,4.40
2023-01-25T06:42:26.951Z,4.70
2023-01-25T06:47:31.986Z,4.65
2023-01-25T06:52:36.516Z,4.53
2023-01-25T06:57:40.119Z,4.40
2023-01-25T07:02:45.306Z,4.45
2023-01-25T07:07:49.147Z,4.85
2023-01-25T07:12:52.742Z,4.30
2023-01-25T07:18:03.180Z,4.40
2023-01-25T07:23:14.953Z,4.47
2023-01-25T07:28:19.368Z,4.32
2023-01-25T07:33:24.709Z,4.93
2023-01-25T07:38:28.313Z,4.32
2023-01-25T07:43:32.303Z,4.68
2023-01-25T07:48:42.417Z,4.80
2023-01-25T07:53:46.068Z,4.90
2023-01-25T07:58:49.897Z,4.50
2023-01-25T08:03:57.432Z,4.50
2023-01-25T08:09:02.254Z,5.10
2023-01-25T08:14:06.081Z,4.50
2023-01-25T08:19:13.351Z,4.70
2023-01-25T08:24:17.404Z,4.75
2023-01-25T08:29:21.118Z,4.43
2023-01-25T08:34:27.251Z,4.70
2023-01-25T08:39:30.851Z,4.97
2023-01-25T08:44:34.521Z,4.82
2023-01-25T08:49:39.540Z,4.65
2023-01-25T08:54:44.392Z,5.15
2023-01-25T08:59:48.262Z,5.13
2023-01-25T09:04:53.156Z,5.00
2023-01-25T09:09:56.759Z,5.10
2023-01-25T09:15:00.375Z,5.10
2023-01-25T09:20:07.926Z,5.25
2023-01-25T09:25:11.929Z,5.38
2023-01-25T09:30:18.859Z,5.43
2023-01-25T09:35:29.678Z,5.32
2023-01-25T09:40:40.682Z,5.38
2023-01-25T09:45:44.988Z,5.60
2023-01-25T09:51:19.528Z,5.60
2023-01-25T09:56:29.505Z,6.03
2023-01-25T10:01:43.477Z,6.00
2023-01-25T10:07:01.103Z,6.10
2023-01-25T10:17:31.306Z,6.00
2023-01-25T10:22:42.505Z,6.07
2023-01-25T10:28:02.384Z,5.97
2023-01-25T10:33:16.554Z,5.85
2023-01-25T10:38:30.886Z,6.15
2023-01-25T10:43:34.456Z,5.72
2023-01-25T10:48:38.924Z,6.20
2023-01-25T10:53:44.343Z,6.38
2023-01-25T10:58:51.878Z,6.00
2023-01-25T11:03:55.732Z,6.30
2023-01-25T11:09:01.367Z,6.40
2023-01-25T11:14:17.173Z,6.47
2023-01-25T11:19:33.748Z,6.30
2023-01-25T11:24:38.968Z,6.53
2023-01-25T11:29:42.617Z,5.82
2023-01-25T11:34:46.510Z,6.55
2023-01-25T11:40:12.438Z,6.28
2023-01-25T11:46:03.701Z,6.65
2023-01-25T11:51:15.620Z,6.80
2023-01-25T11:56:38.253Z,6.60
2023-01-25T12:02:08.536Z,5.95
2023-01-25T12:07:23.685Z,6.72
2023-01-25T12:12:57.759Z,6.90
2023-01-25T12:18:36.405Z,6.57
2023-01-25T12:24:18.005Z,6.75
2023-01-25T12:29:30.712Z,6.85
2023-01-25T12:34:39.942Z,6.90
2023-01-25T12:39:50.260Z,7.00
2023-01-25T12:45:04.217Z,7.20
2023-01-25T12:50:20.120Z,6.82
2023-01-25T12:55:23.916Z,7.25
2023-01-25T13:00:37.959Z,6.78
2023-01-25T13:05:51.497Z,7.30
2023-01-25T13:11:08.626Z,7.70
2023-01-25T13:16:41.109Z,7.63
2023-01-25T13:21:48.094Z,7.40
2023-01-25T13:27:06.162Z,7.07
2023-01-25T13:32:15.676Z,7.65
2023-01-25T13:37:22.989Z,7.45
2023-01-25T13:42:28.639Z,7.57
2023-01-25T13:47:38.188Z,7.22
2023-01-25T13:52:57.860Z,7.32
2023-01-25T13:58:16.288Z,7.63
2023-01-25T14:03:26.226Z,8.05
2023-01-25T14:08:31.295Z,7.93
2023-01-25T14:13:35.031Z,7.82
2023-01-25T14:18:41.126Z,8.05
2023-01-25T14:23:46.145Z,8.25
2023-01-25T14:29:01.044Z,7.70
2023-01-25T14:34:08.687Z,7.80
2023-01-25T14:39:26.893Z,8.27
2023-01-25T14:44:31.443Z,8.30
2023-01-25T14:49:36.523Z,8.07
2023-01-25T14:54:52.245Z,8.23
2023-01-25T14:59:57.590Z,8.50
2023-01-25T15:05:15.048Z,8.30
2023-01-25T15:10:24.489Z,8.48
2023-01-25T15:15:32.717Z,8.18
2023-01-25T15:20:41.866Z,8.32
2023-01-25T15:25:57.465Z,8.25
2023-01-25T15:31:02.189Z,8.60
2023-01-25T15:36:08.266Z,9.40
2023-01-25T15:41:12.529Z,8.73
2023-01-25T15:46:20.864Z,9.00
2023-01-25T15:51:26.257Z,9.00
2023-01-25T15:56:33.090Z,8.60
2023-01-25T16:01:36.953Z,9.35
2023-01-25T16:06:44.924Z,9.13
2023-01-25T16:11:51.134Z,8.88
2023-01-25T16:16:55.054Z,8.73
2023-01-25T16:22:00.679Z,9.10
2023-01-25T16:27:04.378Z,9.07
2023-01-25T16:32:08.170Z,8.95
2023-01-25T16:37:18.454Z,8.52
2023-01-25T16:42:22.827Z,9.15
2023-01-25T16:47:27.872Z,9.52
2023-01-25T16:52:33.085Z,9.25
2023-01-25T16:57:36.734Z,9.18
2023-01-25T17:02:49.758Z,8.63
2023-01-25T17:08:02.247Z,9.23
2023-01-25T17:13:06.051Z,9.40
2023-01-25T17:18:09.613Z,9.88
2023-01-25T17:23:14.668Z,9.85
2023-01-25T17:28:18.471Z,9.73
2023-01-25T17:33:22.739Z,9.95
2023-01-25T17:38:28.836Z,9.55
2023-01-25T17:43:34.426Z,9.70
2023-01-25T17:48:38.316Z,9.70
2023-01-25T17:53:43.555Z,9.43
2023-01-25T17:58:48.080Z,9.50
2023-01-25T18:03:54.533Z,9.70
2023-01-25T18:09:02.830Z,9.80
2023-01-25T18:14:10.267Z,9.93
2023-01-25T18:19:14.783Z,9.50
2023-01-25T18:24:34.006Z,9.13
2023-01-25T18:29:48.926Z,9.23
2023-01-25T18:34:52.585Z,10.10
2023-01-25T18:39:58.027Z,9.82
2023-01-25T18:45:01.913Z,9.88
2023-01-25T18:50:09.261Z,9.48
2023-01-25T18:55:14.292Z,9.87
2023-01-25T19:00:18.956Z,9.70
2023-01-25T19:05:22.708Z,9.70
2023-01-25T19:10:27.832Z,10.02
2023-01-25T19:15:31.627Z,9.52
2023-01-25T19:20:35.261Z,9.80
2023-01-25T19:25:40.252Z,9.70
2023-01-25T19:30:43.839Z,9.80
2023-01-25T19:35:47.548Z,9.82
2023-01-25T19:40:52.472Z,9.73
2023-01-25T19:45:56.104Z,9.45
2023-01-25T19:51:12.930Z,10.07
2023-01-25T19:56:19.246Z,9.60
2023-01-25T20:01:29.087Z,9.88
2023-01-25T20:06:34.051Z,9.35
2023-01-25T20:11:39.811Z,9.05
2023-01-25T20:16:43.882Z,9.52
2023-01-25T20:21:47.678Z,9.75
2023-01-25T20:26:54.781Z,9.23
2023-01-25T20:31:58.489Z,9.70
2023-01-25T20:37:02.157Z,9.75
2023-01-25T20:42:07.324Z,9.38
2023-01-25T20:47:10.982Z,9.52
2023-01-25T20:52:14.648Z,9.80
2023-01-25T20:57:19.610Z,9.95
2023-01-25T21:02:23.499Z,9.65
2023-01-25T21:07:27.152Z,9.57
2023-01-25T21:12:33.500Z,9.88
2023-01-25T21:17:38.875Z,9.25
2023-01-25T21:22:42.677Z,9.70
2023-01-25T21:27:49.336Z,9.52
2023-01-25T21:32:52.907Z,9.32
2023-01-25T21:37:56.495Z,9.57
2023-01-25T21:43:01.424Z,9.32
2023-01-25T21:48:05.575Z,8.95
2023-01-25T21:53:10.881Z,9.15
2023-01-25T21:58:18.755Z,9.20
2023-01-25T22:03:24.471Z,9.40
2023-01-25T22:08:30.100Z,9.40
2023-01-25T22:13:35.727Z,9.13
2023-01-25T22:18:42.330Z,8.93
2023-01-25T22:23:47.065Z,9.25
2023-01-25T22:28:54.960Z,8.50
2023-01-25T22:34:00.518Z,9.57
2023-01-25T22:39:04.209Z,8.77
2023-01-25T22:44:09.894Z,8.88
2023-01-25T22:49:13.484Z,9.43
2023-01-25T22:54:17.109Z,9.00
2023-01-25T22:59:22.159Z,9.00
2023-01-25T23:04:25.940Z,9.20
2023-01-25T23:09:30.027Z,8.75
2023-01-25T23:14:53.946Z,8.98
2023-01-25T23:19:57.719Z,9.20
2023-01-25T23:25:01.377Z,9.00
2023-01-25T23:30:09.848Z,9.20
2023-01-25T23:35:14.368Z,8.55
2023-01-25T23:40:18.768Z,9.38
2023-01-25T23:45:23.797Z,9.38
2023-01-25T23:50:27.506Z,9.52
2023-01-25T23:55:31.072Z,9.48
